createdAt,value
2023-02-03T00:00:51.004Z,100901.84
2023-02-03T00:03:17.554Z,100897.59
2023-02-03T00:05:44.491Z,100893.81
2023-02-03T00:08:11.247Z,100878.94
2023-02-03T00:10:39.523Z,100888.34
2023-02-03T00:13:07.065Z,100897.47
2023-02-03T00:15:33.592Z,100899.97
2023-02-03T00:18:00.120Z,100902.91
2023-02-03T00:20:27.016Z,100902.31
2023-02-03T00:22:53.764Z,100901.78
2023-02-03T00:25:21.418Z,100889.59
2023-02-03T00:27:47.961Z,100901.13
2023-02-03T00:30:14.496Z,100901.66
2023-02-03T00:32:41.443Z,100911.63
2023-02-03T00:35:08.158Z,100899.91
2023-02-03T00:37:36.395Z,100887.72
2023-02-03T00:40:03.046Z,100896.56
2023-02-03T00:42:31.465Z,100904.03
2023-02-03T00:44:57.982Z,100899.44
2023-02-03T00:47:24.494Z,100888.22
2023-02-03T00:49:51.015Z,100894.19
2023-02-03T00:52:17.675Z,100898.00
2023-02-03T00:54:44.211Z,100894.38
2023-02-03T00:57:11.033Z,100902.34
2023-02-03T00:59:38.976Z,100906.44
2023-02-03T01:02:05.692Z,100902.44
2023-02-03T01:04:32.218Z,100904.66
2023-02-03T01:06:59.845Z,100899.41
2023-02-03T01:09:26.819Z,100914.47
2023-02-03T01:11:54.123Z,100915.31
2023-02-03T01:14:20.683Z,100898.69
2023-02-03T01:16:47.255Z,100896.34
2023-02-03T01:19:14.733Z,100889.28
2023-02-03T01:21:41.260Z,100894.47
2023-02-03T01:24:09.597Z,100883.16
2023-02-03T01:26:39.064Z,100877.09
2023-02-03T01:29:05.573Z,100885.91
2023-02-03T01:31:39.954Z,100865.69
2023-02-03T01:34:10.907Z,100865.88
2023-02-03T01:36:37.854Z,100854.56
2023-02-03T01:39:06.008Z,100851.88
2023-02-03T01:41:37.568Z,100833.72
2023-02-03T01:44:35.317Z,100842.56
2023-02-03T01:47:03.817Z,100827.09
2023-02-03T01:49:36.578Z,100821.81
2023-02-03T01:52:04.650Z,100800.53
2023-02-03T01:54:37.497Z,100802.66
2023-02-03T01:57:10.389Z,100803.97
2023-02-03T01:59:37.276Z,100794.16
2023-02-03T02:02:06.562Z,100796.59
2023-02-03T02:05:16.025Z,100791.38
2023-02-03T02:07:44.187Z,100785.69
2023-02-03T02:10:11.204Z,100793.88
2023-02-03T02:12:38.003Z,100786.78
2023-02-03T02:15:05.353Z,100800.69
2023-02-03T02:17:53.218Z,100787.41
2023-02-03T02:20:25.923Z,100806.25
2023-02-03T02:23:25.717Z,100788.44
2023-02-03T02:26:33.579Z,100775.88
2023-02-03T02:29:36.588Z,100771.06
2023-02-03T02:32:28.042Z,100762.69
2023-02-03T02:35:21.835Z,100775.28
2023-02-03T02:37:59.016Z,100775.94
2023-02-03T02:41:14.974Z,100773.03
2023-02-03T02:43:47.337Z,100779.28
2023-02-03T02:46:19.180Z,100792.41
2023-02-03T02:48:57.318Z,100785.84
2023-02-03T02:51:24.413Z,100766.72
2023-02-03T02:54:02.454Z,100762.97
2023-02-03T02:56:32.455Z,100769.47
2023-02-03T02:59:03.884Z,100753.75
2023-02-03T03:01:30.927Z,100754.16
2023-02-03T03:04:02.144Z,100775.06
2023-02-03T03:06:34.053Z,100755.94
2023-02-03T03:09:08.088Z,100745.22
2023-02-03T03:11:48.488Z,100759.56
2023-02-03T03:14:19.277Z,100756.22
2023-02-03T03:16:54.381Z,100737.16
2023-02-03T03:19:24.918Z,100726.44
2023-02-03T03:21:57.415Z,100743.06
2023-02-03T03:24:34.565Z,100742.28
2023-02-03T03:27:14.391Z,100742.22
2023-02-03T03:29:47.522Z,100742.13
2023-02-03T03:32:14.533Z,100744.22
2023-02-03T03:34:42.290Z,100727.16
2023-02-03T03:37:20.279Z,100721.84
2023-02-03T03:39:54.001Z,100718.16
2023-02-03T03:42:31.762Z,100723.50
2023-02-03T03:45:16.653Z,100709.97
2023-02-03T03:47:59.320Z,100710.50
2023-02-03T03:50:31.309Z,100710.97
2023-02-03T03:53:02.015Z,100692.31
2023-02-03T03:55:31.894Z,100685.66
2023-02-03T03:58:05.668Z,100690.75
2023-02-03T04:00:35.371Z,100687.44
2023-02-03T04:03:19.534Z,100698.03
2023-02-03T04:05:46.355Z,100702.81
2023-02-03T04:08:12.934Z,100708.38
2023-02-03T04:10:42.031Z,100705.09
2023-02-03T04:13:10.005Z,100702.34
2023-02-03T04:15:37.197Z,100699.78
2023-02-03T04:18:04.649Z,100708.44
2023-02-03T04:20:33.026Z,100715.19
2023-02-03T04:22:59.594Z,100708.72
2023-02-03T04:25:26.553Z,100693.09
2023-02-03T04:27:53.201Z,100685.22
2023-02-03T04:30:19.808Z,100698.31
2023-02-03T04:32:47.147Z,100685.47
2023-02-03T04:35:14.427Z,100676.72
2023-02-03T04:37:41.440Z,100671.19
2023-02-03T04:40:09.015Z,100668.41
2023-02-03T04:42:39.304Z,100662.63
2023-02-03T04:45:07.956Z,100667.63
2023-02-03T04:47:35.303Z,100671.53
2023-02-03T04:50:02.136Z,100670.44
2023-02-03T04:52:28.794Z,100664.16
2023-02-03T04:54:55.384Z,100652.31
2023-02-03T04:57:21.908Z,100649.78
2023-02-03T04:59:48.779Z,100642.63
2023-02-03T05:02:15.563Z,100639.81
2023-02-03T05:04:42.062Z,100641.84
2023-02-03T05:07:09.630Z,100638.91
2023-02-03T05:09:36.145Z,100640.25
2023-02-03T05:12:02.793Z,100637.69
2023-02-03T05:14:29.342Z,100631.06
2023-02-03T05:16:56.050Z,100632.28
2023-02-03T05:19:22.648Z,100623.34
2023-02-03T05:21:49.137Z,100618.44
2023-02-03T05:24:15.683Z,100628.53
2023-02-03T05:26:42.235Z,100648.69
2023-02-03T05:29:10.043Z,100644.63
2023-02-03T05:31:36.584Z,100640.91
2023-02-03T05:34:03.298Z,100641.91
2023-02-03T05:36:30.053Z,100642.31
2023-02-03T05:38:56.674Z,100633.75
2023-02-03T05:41:42.054Z,100652.84
2023-02-03T05:44:08.581Z,100641.84
2023-02-03T05:46:35.109Z,100639.75
2023-02-03T05:49:01.598Z,100652.97
2023-02-03T05:51:28.366Z,100648.16
2023-02-03T05:53:54.865Z,100643.63
2023-02-03T05:56:21.565Z,100635.75
2023-02-03T05:58:48.067Z,100640.50
2023-02-03T06:01:14.585Z,100625.19
2023-02-03T06:03:43.235Z,100630.97
2023-02-03T06:06:10.948Z,100625.03
2023-02-03T06:08:37.910Z,100617.25
2023-02-03T06:11:04.569Z,100604.28
2023-02-03T06:13:31.393Z,100624.03
2023-02-03T06:15:57.926Z,100619.88
2023-02-03T06:18:24.572Z,100610.34
2023-02-03T06:20:51.139Z,100594.16
2023-02-03T06:23:19.039Z,100602.13
2023-02-03T06:25:48.431Z,100601.91
2023-02-03T06:28:15.305Z,100605.53
2023-02-03T06:30:41.986Z,100586.59
2023-02-03T06:33:08.712Z,100586.47
2023-02-03T06:35:35.561Z,100582.00
2023-02-03T06:38:02.147Z,100590.25
2023-02-03T06:40:29.179Z,100582.09
2023-02-03T06:42:55.965Z,100592.91
2023-02-03T06:45:24.029Z,100582.41
2023-02-03T06:47:50.564Z,100589.78
2023-02-03T06:50:18.163Z,100589.59
2023-02-03T06:52:45.133Z,100579.59
2023-02-03T06:55:11.757Z,100575.31
2023-02-03T06:57:46.648Z,100571.91
2023-02-03T07:00:18.160Z,100560.53
2023-02-03T07:02:45.978Z,100563.44
2023-02-03T07:05:12.544Z,100555.91
2023-02-03T07:07:39.483Z,100557.88
2023-02-03T07:10:06.653Z,100556.25
2023-02-03T07:12:33.265Z,100552.31
2023-02-03T07:14:59.757Z,100565.09
2023-02-03T07:17:26.255Z,100563.75
2023-02-03T07:19:52.784Z,100569.09
2023-02-03T07:22:19.321Z,100558.66
2023-02-03T07:24:45.832Z,100563.59
2023-02-03T07:27:12.681Z,100538.75
2023-02-03T07:29:39.598Z,100552.63
2023-02-03T07:32:06.208Z,100544.19
2023-02-03T07:34:33.091Z,100542.44
2023-02-03T07:36:59.862Z,100553.25
2023-02-03T07:39:27.731Z,100558.31
2023-02-03T07:41:54.431Z,100559.06
2023-02-03T07:44:22.735Z,100550.72
2023-02-03T07:46:49.276Z,100526.81
2023-02-03T07:49:16.398Z,100533.91
2023-02-03T07:51:43.384Z,100530.78
2023-02-03T07:54:10.055Z,100535.47
2023-02-03T07:56:36.620Z,100538.16
2023-02-03T07:59:03.645Z,100539.63
2023-02-03T08:01:31.333Z,100538.03
2023-02-03T08:03:57.998Z,100542.50
2023-02-03T08:06:24.792Z,100532.72
2023-02-03T08:08:51.295Z,100539.84
2023-02-03T08:11:18.210Z,100531.00
2023-02-03T08:13:44.716Z,100537.38
2023-02-03T08:16:11.568Z,100543.69
2023-02-03T08:18:38.461Z,100535.72
2023-02-03T08:21:05.251Z,100524.50
2023-02-03T08:23:32.012Z,100528.50
2023-02-03T08:25:58.790Z,100532.59
2023-02-03T08:28:25.358Z,100523.53
2023-02-03T08:30:52.341Z,100515.75
2023-02-03T08:33:18.897Z,100516.66
2023-02-03T08:35:47.362Z,100516.63
2023-02-03T08:38:14.007Z,100508.16
2023-02-03T08:40:40.536Z,100518.41
2023-02-03T08:43:07.351Z,100536.44
2023-02-03T08:45:33.934Z,100534.94
2023-02-03T08:48:00.603Z,100550.41
2023-02-03T08:50:27.463Z,100535.41
2023-02-03T08:52:54.171Z,100554.31
2023-02-03T08:55:20.832Z,100545.50
2023-02-03T08:57:47.345Z,100550.78
2023-02-03T09:00:14.434Z,100541.81
2023-02-03T09:02:40.930Z,100555.66
2023-02-03T09:05:08.349Z,100545.09
2023-02-03T09:07:34.973Z,100564.28
2023-02-03T09:10:02.074Z,100553.00
2023-02-03T09:12:28.555Z,100569.25
2023-02-03T09:14:55.545Z,100576.31
2023-02-03T09:17:22.114Z,100574.19
2023-02-03T09:19:48.735Z,100572.69
2023-02-03T09:22:15.356Z,100566.22
2023-02-03T09:24:41.937Z,100575.53
2023-02-03T09:27:08.521Z,100567.94
2023-02-03T09:29:35.061Z,100569.16
2023-02-03T09:32:07.003Z,100573.41
2023-02-03T09:34:33.724Z,100609.41
2023-02-03T09:37:00.259Z,100625.50
2023-02-03T09:39:26.889Z,100641.34
2023-02-03T09:42:05.767Z,100628.69
2023-02-03T09:44:47.571Z,100595.63
2023-02-03T09:47:28.614Z,100607.81
2023-02-03T09:50:05.282Z,100605.03
2023-02-03T09:52:40.538Z,100608.31
2023-02-03T09:55:26.950Z,100608.38
2023-02-03T09:58:12.251Z,100613.22
2023-02-03T10:00:44.796Z,100624.31
2023-02-03T10:03:53.926Z,100640.00
2023-02-03T10:06:41.677Z,100646.53
2023-02-03T10:09:17.808Z,100640.41
2023-02-03T10:12:10.808Z,100641.19
2023-02-03T10:14:46.665Z,100652.59
2023-02-03T10:17:30.216Z,100652.50
2023-02-03T10:20:11.497Z,100635.38
2023-02-03T10:22:42.930Z,100647.34
2023-02-03T10:25:24.551Z,100649.16
2023-02-03T10:28:00.032Z,100645.78
2023-02-03T10:30:31.944Z,100650.38
2023-02-03T10:33:11.580Z,100677.44
2023-02-03T10:36:02.534Z,100670.09
2023-02-03T10:38:41.578Z,100669.97
2023-02-03T10:41:08.611Z,100673.47
2023-02-03T10:43:48.153Z,100685.19
2023-02-03T10:46:16.486Z,100689.28
2023-02-03T10:48:43.058Z,100690.91
2023-02-03T10:51:27.422Z,100701.72
2023-02-03T10:53:54.236Z,100704.53
2023-02-03T10:56:27.242Z,100702.75
2023-02-03T10:58:56.595Z,100700.84
2023-02-03T11:01:26.249Z,100711.69
2023-02-03T11:04:00.124Z,100720.22
2023-02-03T11:06:28.256Z,100728.66
2023-02-03T11:08:55.507Z,100714.06
2023-02-03T11:11:31.190Z,100722.13
2023-02-03T11:14:03.638Z,100709.38
2023-02-03T11:16:35.031Z,100726.16
2023-02-03T11:19:17.483Z,100726.56
2023-02-03T11:21:48.493Z,100713.47
2023-02-03T11:24:31.687Z,100697.97
2023-02-03T11:27:06.751Z,100718.72
2023-02-03T11:29:40.211Z,100723.84
2023-02-03T11:32:18.150Z,100719.63
2023-02-03T11:34:57.367Z,100731.78
2023-02-03T11:37:27.228Z,100740.97
2023-02-03T11:40:18.172Z,100732.84
2023-02-03T11:42:58.893Z,100744.34
2023-02-03T11:45:44.352Z,100741.94
2023-02-03T11:48:10.990Z,100742.59
2023-02-03T11:51:05.082Z,100734.34
2023-02-03T11:53:47.843Z,100729.31
2023-02-03T11:57:05.080Z,100729.22
2023-02-03T11:59:55.423Z,100722.72
2023-02-03T12:02:58.238Z,100734.66
2023-02-03T12:05:42.654Z,100756.56
2023-02-03T12:08:34.980Z,100747.91
2023-02-03T12:11:17.596Z,100750.53
2023-02-03T12:14:06.514Z,100772.03
2023-02-03T12:17:01.478Z,100775.31
2023-02-03T12:19:37.293Z,100782.06
2023-02-03T12:22:33.535Z,100777.31
2023-02-03T12:25:24.866Z,100780.53
2023-02-03T12:28:05.887Z,100772.66
2023-02-03T12:30:43.384Z,100772.28
2023-02-03T12:33:21.251Z,100800.34
2023-02-03T12:36:07.999Z,100795.53
2023-02-03T12:38:56.940Z,100798.03
2023-02-03T12:41:31.489Z,100810.34
2023-02-03T12:44:05.096Z,100802.72
2023-02-03T12:46:45.564Z,100785.91
2023-02-03T12:49:18.432Z,100802.63
2023-02-03T12:51:53.908Z,100800.81
2023-02-03T12:54:41.848Z,100796.13
2023-02-03T12:57:18.268Z,100805.53
2023-02-03T12:59:55.065Z,100795.09
2023-02-03T13:02:27.168Z,100802.59
2023-02-03T13:04:59.647Z,100802.66
2023-02-03T13:07:36.029Z,100801.44
2023-02-03T13:10:10.250Z,100794.13
2023-02-03T13:12:44.831Z,100809.97
2023-02-03T13:15:37.233Z,100801.84
2023-02-03T13:18:28.322Z,100802.09
2023-02-03T13:20:55.537Z,100799.69
2023-02-03T13:23:23.591Z,100793.75
2023-02-03T13:25:52.721Z,100788.22
2023-02-03T13:28:38.350Z,100795.25
2023-02-03T13:31:17.145Z,100800.34
2023-02-03T13:34:05.676Z,100802.16
2023-02-03T13:36:53.216Z,100810.13
2023-02-03T13:39:50.710Z,100814.38
2023-02-03T13:42:32.312Z,100815.47
2023-02-03T13:45:36.726Z,100827.19
2023-02-03T13:48:24.559Z,100824.19
2023-02-03T13:51:04.039Z,100843.50
2023-02-03T13:53:39.004Z,100854.38
2023-02-03T13:56:18.811Z,100845.34
2023-02-03T13:59:06.236Z,100850.06
2023-02-03T14:01:39.021Z,100857.88
2023-02-03T14:04:09.244Z,100852.47
2023-02-03T14:06:35.798Z,100847.63
2023-02-03T14:09:22.228Z,100853.25
2023-02-03T14:11:51.030Z,100851.91
2023-02-03T14:14:17.499Z,100867.81
2023-02-03T14:16:48.816Z,100870.19
2023-02-03T14:19:21.433Z,100867.78
2023-02-03T14:21:57.260Z,100890.06
2023-02-03T14:24:29.765Z,100881.53
2023-02-03T14:26:59.501Z,100873.97
2023-02-03T14:29:37.302Z,100872.69
2023-02-03T14:32:13.748Z,100889.34
2023-02-03T14:34:46.557Z,100890.38
2023-02-03T14:37:26.451Z,100902.22
2023-02-03T14:39:55.782Z,100887.97
2023-02-03T14:42:22.825Z,100904.38
2023-02-03T14:45:06.778Z,100921.59
2023-02-03T14:47:57.908Z,100929.78
2023-02-03T14:50:40.039Z,100911.72
2023-02-03T14:53:37.382Z,100923.03
2023-02-03T14:56:17.187Z,100914.69
2023-02-03T14:58:52.651Z,100930.91
2023-02-03T15:01:39.659Z,100924.22
2023-02-03T15:04:12.385Z,100927.69
2023-02-03T15:06:45.096Z,100935.53
2023-02-03T15:09:34.754Z,100949.47
2023-02-03T15:12:01.572Z,100939.22
2023-02-03T15:14:33.368Z,100939.25
2023-02-03T15:17:03.003Z,100936.41
2023-02-03T15:19:35.225Z,100934.28
2023-02-03T15:22:02.072Z,100942.31
2023-02-03T15:24:36.665Z,100936.53
2023-02-03T15:27:03.337Z,100934.03
2023-02-03T15:29:34.062Z,100936.06
2023-02-03T15:32:09.737Z,100953.03
2023-02-03T15:34:41.568Z,100948.94
2023-02-03T15:37:16.603Z,100933.06
2023-02-03T15:40:00.277Z,100954.88
2023-02-03T15:42:34.238Z,100949.34
2023-02-03T15:45:09.201Z,100940.59
2023-02-03T15:47:41.537Z,100937.44
2023-02-03T15:50:25.155Z,100965.50
2023-02-03T15:52:56.712Z,100974.00
2023-02-03T15:55:43.078Z,100960.28
2023-02-03T15:58:20.464Z,100970.16
2023-02-03T16:00:52.657Z,100971.44
2023-02-03T16:03:23.001Z,100964.38
2023-02-03T16:05:50.443Z,100954.44
2023-02-03T16:08:42.728Z,100972.28
2023-02-03T16:11:32.718Z,100972.03
2023-02-03T16:14:32.723Z,100978.88
2023-02-03T16:17:05.330Z,100984.16
2023-02-03T16:19:38.040Z,100990.09
2023-02-03T16:22:04.976Z,100989.53
2023-02-03T16:24:40.427Z,100996.91
2023-02-03T16:27:28.761Z,101006.03
2023-02-03T16:30:41.812Z,101013.69
2023-02-03T16:33:27.227Z,101007.63
2023-02-03T16:36:17.298Z,101020.38
2023-02-03T16:39:07.170Z,101021.56
2023-02-03T16:41:53.669Z,101020.06
2023-02-03T16:44:39.264Z,101018.16
2023-02-03T16:47:41.730Z,101018.91
2023-02-03T16:50:38.299Z,101000.72
2023-02-03T16:53:12.304Z,101004.75
2023-02-03T16:55:39.065Z,101021.03
2023-02-03T16:58:05.807Z,101023.69
2023-02-03T17:00:32.843Z,101013.81
2023-02-03T17:03:03.595Z,101029.22
2023-02-03T17:05:30.531Z,101031.88
2023-02-03T17:07:57.312Z,101024.22
2023-02-03T17:10:24.578Z,101038.72
2023-02-03T17:12:52.614Z,101041.91
2023-02-03T17:15:19.365Z,101048.81
2023-02-03T17:17:46.082Z,101065.69
2023-02-03T17:20:12.967Z,101057.19
2023-02-03T17:22:39.615Z,101056.28
2023-02-03T17:25:07.701Z,101052.78
2023-02-03T17:27:34.479Z,101051.47
2023-02-03T17:30:01.240Z,101066.16
2023-02-03T17:32:28.018Z,101065.72
2023-02-03T17:34:55.747Z,101071.09
2023-02-03T17:37:22.293Z,101060.38
2023-02-03T17:53:32.242Z,101074.72
2023-02-03T17:55:59.457Z,101080.34
2023-02-03T17:58:26.567Z,101082.41
2023-02-03T18:00:53.148Z,101081.88
2023-02-03T18:03:19.774Z,101092.78
2023-02-03T18:05:52.587Z,101097.44
2023-02-03T18:08:20.529Z,101104.03
2023-02-03T18:10:51.041Z,101098.53
2023-02-03T18:13:18.400Z,101105.84
2023-02-03T18:15:44.900Z,101126.50
2023-02-03T18:18:11.509Z,101120.41
2023-02-03T18:20:38.046Z,101124.28
2023-02-03T18:23:04.780Z,101119.34
2023-02-03T18:25:31.550Z,101123.84
2023-02-03T18:27:58.415Z,101128.19
2023-02-03T18:30:25.948Z,101136.41
2023-02-03T18:32:52.607Z,101139.81
2023-02-03T18:35:19.682Z,101146.78
2023-02-03T18:37:46.619Z,101155.53
2023-02-03T18:40:13.775Z,101150.03
2023-02-03T18:42:40.336Z,101165.75
2023-02-03T18:45:07.240Z,101165.19
2023-02-03T18:47:34.213Z,101179.00
2023-02-03T18:50:00.789Z,101172.28
2023-02-03T18:52:27.525Z,101175.59
2023-02-03T18:54:54.285Z,101181.66
2023-02-03T18:57:22.456Z,101173.31
2023-02-03T18:59:49.458Z,101185.03
2023-02-03T19:02:16.003Z,101176.53
2023-02-03T19:04:42.922Z,101179.94
2023-02-03T19:07:12.160Z,101180.13
2023-02-03T19:09:40.870Z,101174.69
2023-02-03T19:12:07.926Z,101190.00
2023-02-03T19:14:35.577Z,101199.34
2023-02-03T19:17:03.572Z,101201.59
2023-02-03T19:19:31.664Z,101206.25
2023-02-03T19:21:58.491Z,101207.63
2023-02-03T19:24:26.963Z,101206.47
2023-02-03T19:26:53.788Z,101213.91
2023-02-03T19:29:21.555Z,101211.47
2023-02-03T19:31:48.539Z,101214.03
2023-02-03T19:34:16.602Z,101226.91
2023-02-03T19:36:43.679Z,101228.81
2023-02-03T19:39:10.703Z,101231.53
2023-02-03T19:41:37.429Z,101250.91
2023-02-03T19:44:05.653Z,101243.50
2023-02-03T19:46:37.235Z,101263.66
2023-02-03T19:49:13.307Z,101247.63
2023-02-03T19:51:40.938Z,101256.72
2023-02-03T19:54:10.334Z,101260.47
2023-02-03T19:56:37.043Z,101244.03
2023-02-03T19:59:04.574Z,101265.25
2023-02-03T20:01:31.533Z,101286.53
2023-02-03T20:03:58.446Z,101271.34
2023-02-03T20:06:25.712Z,101285.47
2023-02-03T20:08:53.350Z,101290.84
2023-02-03T20:11:22.192Z,101292.75
2023-02-03T20:13:48.965Z,101304.09
2023-02-03T20:16:15.727Z,101303.63
2023-02-03T20:18:42.232Z,101308.25
2023-02-03T20:21:09.516Z,101308.34
2023-02-03T20:23:36.710Z,101309.53
2023-02-03T20:26:03.911Z,101303.31
2023-02-03T20:28:30.539Z,101300.59
2023-02-03T20:31:00.447Z,101317.41
2023-02-03T20:33:30.430Z,101322.94
2023-02-03T20:35:57.554Z,101324.13
2023-02-03T20:38:24.801Z,101317.25
2023-02-03T20:40:51.449Z,101320.47
2023-02-03T20:43:24.951Z,101323.16
2023-02-03T20:45:52.378Z,101323.78
2023-02-03T20:48:22.166Z,101330.22
2023-02-03T20:50:50.091Z,101327.38
2023-02-03T20:53:18.079Z,101342.22
2023-02-03T20:55:45.409Z,101350.38
2023-02-03T20:58:26.697Z,101349.41
2023-02-03T21:00:57.146Z,101357.38
2023-02-03T21:03:42.646Z,101362.06
2023-02-03T21:06:20.423Z,101334.47
2023-02-03T21:08:48.153Z,101359.75
2023-02-03T21:11:17.045Z,101357.19
2023-02-03T21:13:45.600Z,101355.78
2023-02-03T21:16:27.452Z,101371.94
2023-02-03T21:19:02.874Z,101378.63
2023-02-03T21:21:34.980Z,101390.25
2023-02-03T21:24:18.014Z,101385.34
2023-02-03T21:26:45.025Z,101392.63
2023-02-03T21:29:22.271Z,101406.38
2023-02-03T21:31:49.197Z,101396.69
2023-02-03T21:34:28.625Z,101431.69
2023-02-03T21:36:57.143Z,101422.03
2023-02-03T21:39:33.162Z,101423.38
2023-02-03T21:42:40.736Z,101441.00
2023-02-03T21:45:16.961Z,101453.09
2023-02-03T21:47:45.590Z,101462.94
2023-02-03T21:50:35.163Z,101459.47
2023-02-03T21:53:26.935Z,101477.69
2023-02-03T21:55:54.161Z,101477.53
2023-02-03T21:58:30.297Z,101487.22
2023-02-03T22:00:59.088Z,101481.72
2023-02-03T22:03:43.130Z,101483.16
2023-02-03T22:06:09.575Z,101496.59
2023-02-03T22:08:46.737Z,101490.94
2023-02-03T22:11:14.576Z,101511.22
2023-02-03T22:13:41.715Z,101517.50
2023-02-03T22:16:09.521Z,101515.44
2023-02-03T22:18:36.284Z,101531.84
2023-02-03T22:21:03.381Z,101529.06
2023-02-03T22:23:30.159Z,101541.34
2023-02-03T22:25:56.638Z,101545.06
2023-02-03T22:28:23.151Z,101541.78
2023-02-03T22:30:49.740Z,101545.72
2023-02-03T22:33:16.542Z,101560.50
2023-02-03T22:35:43.037Z,101556.31
2023-02-03T22:38:09.583Z,101567.59
2023-02-03T22:40:36.090Z,101574.16
2023-02-03T22:43:03.057Z,101574.81
2023-02-03T22:45:29.877Z,101592.34
2023-02-03T22:47:58.303Z,101594.13
2023-02-03T22:50:35.001Z,101591.19
2023-02-03T22:53:06.965Z,101594.50
2023-02-03T22:55:33.579Z,101613.34
2023-02-03T22:58:00.249Z,101625.91
2023-02-03T23:00:27.400Z,101626.75
2023-02-03T23:02:54.876Z,101631.47
2023-02-03T23:05:22.186Z,101647.03
2023-02-03T23:07:49.844Z,101650.75
2023-02-03T23:10:22.960Z,101650.69
2023-02-03T23:12:50.142Z,101658.91
2023-02-03T23:15:18.146Z,101677.28
2023-02-03T23:17:45.090Z,101690.47
2023-02-03T23:20:14.095Z,101697.03
2023-02-03T23:22:40.625Z,101698.94
2023-02-03T23:25:07.541Z,101708.38
2023-02-03T23:27:34.029Z,101718.31
2023-02-03T23:30:00.639Z,101728.22
2023-02-03T23:32:27.224Z,101729.47
2023-02-03T23:35:12.558Z,101734.03
2023-02-03T23:37:39.587Z,101740.41
2023-02-03T23:40:07.151Z,101751.41
2023-02-03T23:42:33.699Z,101754.72
2023-02-03T23:45:00.242Z,101768.38
2023-02-03T23:47:26.788Z,101774.44
2023-02-03T23:49:53.308Z,101780.84
2023-02-03T23:52:19.818Z,101779.97
2023-02-03T23:54:46.766Z,101777.81
2023-02-03T23:57:13.571Z,101788.41
2023-02-03T23:59:40.331Z,101792.50
